Time;durP1;ratioP1;P1;durP2;ratioP2;P2;SDS_P1;SDS_P2;PMS_P1;PMS_P2;Temp;Humidity;BMP_temperature;BMP_pressure;BME280_temperature;BME280_humidity;BME280_pressure;Samples;Min_cycle;Max_cycle;Signal;HPM_P1;HPM_P2
2021/01/30 00:00:08;;;;;;;17.00;9.55;;;-0.70;99.90;;;;;;5008174;28;20113;-45
2021/01/30 00:02:34;;;;;;;15.85;9.02;;;-0.60;99.90;;;;;;5007891;28;20030;-44
2021/01/30 00:05:00;;;;;;;17.30;10.52;;;-0.70;99.90;;;;;;5006215;28;20422;-44
2021/01/30 00:07:26;;;;;;;15.38;9.07;;;-0.70;99.90;;;;;;5008007;28;20456;-44
2021/01/30 00:09:51;;;;;;;17.58;9.57;;;-0.70;99.90;;;;;;5007494;28;20022;-45
2021/01/30 00:12:17;;;;;;;19.85;10.07;;;-0.70;99.90;;;;;;5009483;28;20018;-45
2021/01/30 00:14:42;;;;;;;15.38;8.70;;;-0.70;99.90;;;;;;5026957;28;20355;-46
2021/01/30 00:17:09;;;;;;;14.25;8.10;;;-0.70;99.90;;;;;;5027025;28;20428;-45
2021/01/30 00:19:36;;;;;;;15.68;9.38;;;-0.70;99.90;;;;;;5027368;28;20017;-44
2021/01/30 00:22:21;;;;;;;17.10;8.98;;;-0.70;99.90;;;;;;5026825;28;20557;-46
2021/01/30 00:24:50;;;;;;;15.07;8.43;;;-0.60;99.90;;;;;;5029738;28;20120;-46
2021/01/30 00:27:19;;;;;;;12.32;7.93;;;-0.60;99.90;;;;;;5013857;28;20099;-44
2021/01/30 00:29:46;;;;;;;12.38;8.05;;;-0.60;99.90;;;;;;5031275;28;20450;-46
2021/01/30 00:32:13;;;;;;;14.50;8.15;;;-0.60;99.90;;;;;;5013497;28;20042;-45
2021/01/30 00:34:38;;;;;;;18.33;8.73;;;-0.60;99.90;;;;;;5030193;28;20201;-46
2021/01/30 00:37:10;;;;;;;15.82;8.90;;;-0.60;99.90;;;;;;5031431;28;20021;-46
2021/01/30 00:39:37;;;;;;;15.50;7.78;;;-0.60;99.90;;;;;;5031008;28;20028;-44
2021/01/30 00:42:04;;;;;;;15.20;8.70;;;-0.70;99.90;;;;;;5030552;28;20354;-44
2021/01/30 00:44:30;;;;;;;15.77;8.02;;;-0.70;99.90;;;;;;5030348;28;20053;-44
2021/01/30 00:46:57;;;;;;;16.92;8.18;;;-0.70;99.90;;;;;;5030972;28;20526;-45
2021/01/30 00:49:23;;;;;;;19.67;8.32;;;-0.70;99.90;;;;;;5031041;28;20072;-45
2021/01/30 00:51:49;;;;;;;12.80;8.10;;;-0.70;99.90;;;;;;5031088;28;20036;-44
2021/01/30 00:54:15;;;;;;;16.48;8.65;;;-0.60;99.90;;;;;;5030815;28;20029;-47
2021/01/30 00:56:40;;;;;;;16.02;8.60;;;-0.60;99.90;;;;;;5030627;28;20036;-45
2021/01/30 00:59:07;;;;;;;16.08;8.73;;;-0.60;99.90;;;;;;5012803;28;20029;-45
2021/01/30 01:01:37;;;;;;;17.17;9.02;;;-0.60;99.90;;;;;;5030705;28;20489;-44
2021/01/30 01:04:03;;;;;;;14.35;8.35;;;-0.60;99.90;;;;;;5030210;28;20504;-44
2021/01/30 01:06:31;;;;;;;16.35;9.73;;;-0.50;99.90;;;;;;5029682;28;20026;-44
2021/01/30 01:08:56;;;;;;;17.45;9.85;;;-0.60;99.90;;;;;;5012249;28;20014;-45
2021/01/30 01:11:22;;;;;;;17.17;9.88;;;-0.60;99.90;;;;;;5029732;28;20071;-48
2021/01/30 01:13:47;;;;;;;18.38;10.00;;;-0.60;99.90;;;;;;5029418;28;20033;-45
2021/01/30 01:16:13;;;;;;;18.75;11.13;;;-0.60;99.90;;;;;;5029433;28;20068;-47
2021/01/30 01:18:38;;;;;;;18.27;10.48;;;-0.50;99.90;;;;;;5028591;28;20159;-44
2021/01/30 01:21:04;;;;;;;18.85;10.82;;;-0.50;99.90;;;;;;5021058;28;20505;-44
2021/01/30 01:23:29;;;;;;;19.65;12.00;;;-0.50;99.90;;;;;;5024412;28;20033;-48
2021/01/30 01:25:55;;;;;;;22.02;12.48;;;-0.50;99.90;;;;;;5028756;28;20026;-48
2021/01/30 01:28:21;;;;;;;19.27;10.52;;;-0.50;99.90;;;;;;5029207;28;20423;-46
2021/01/30 01:30:46;;;;;;;18.75;10.50;;;-0.50;99.90;;;;;;5029739;28;20030;-43
2021/01/30 01:33:12;;;;;;;17.17;10.38;;;-0.50;99.90;;;;;;5029251;28;20021;-45
2021/01/30 01:35:37;;;;;;;15.95;9.75;;;-0.50;99.90;;;;;;5028003;28;20062;-44
2021/01/30 01:38:03;;;;;;;16.85;10.02;;;-0.50;99.90;;;;;;5029025;28;20057;-48
2021/01/30 01:40:31;;;;;;;14.38;8.85;;;-0.50;99.90;;;;;;5029370;28;20108;-45
2021/01/30 01:43:10;;;;;;;22.08;9.55;;;-0.40;99.90;;;;;;5029351;28;20506;-45
2021/01/30 01:45:36;;;;;;;15.82;8.77;;;-0.40;99.90;;;;;;5019100;28;20025;-44
2021/01/30 01:48:06;;;;;;;20.77;9.88;;;-0.40;99.90;;;;;;5019493;28;20034;-44
2021/01/30 01:50:45;;;;;;;22.42;10.48;;;-0.40;99.90;;;;;;5018989;28;20021;-45
2021/01/30 01:53:21;;;;;;;18.90;10.18;;;-0.40;99.90;;;;;;5028128;28;20037;-44
2021/01/30 01:55:53;;;;;;;14.25;8.45;;;-0.40;99.90;;;;;;5026637;28;20029;-44
2021/01/30 01:58:20;;;;;;;17.13;8.88;;;-0.40;99.90;;;;;;5028955;28;20032;-45
2021/01/30 02:00:48;;;;;;;14.93;8.43;;;-0.50;99.90;;;;;;5029524;28;20610;-45
2021/01/30 02:03:14;;;;;;;17.80;9.82;;;-0.40;99.90;;;;;;5029579;28;20030;-44
2021/01/30 02:05:40;;;;;;;13.50;7.93;;;-0.40;99.90;;;;;;5028722;28;20036;-44
2021/01/30 02:08:10;;;;;;;15.73;8.75;;;-0.50;99.90;;;;;;5029283;28;20022;-45
2021/01/30 02:10:42;;;;;;;20.88;10.52;;;-0.50;99.90;;;;;;5029152;28;20040;-44
2021/01/30 02:13:27;;;;;;;14.73;7.90;;;-0.50;99.90;;;;;;5029001;28;20034;-45
2021/01/30 02:16:08;;;;;;;16.73;8.30;;;-0.60;99.90;;;;;;5020938;28;20033;-46
2021/01/30 02:19:02;;;;;;;16.95;8.65;;;-0.60;99.90;;;;;;5021465;28;20026;-45
2021/01/30 02:21:54;;;;;;;17.85;8.98;;;-0.60;99.90;;;;;;5018287;28;20036;-44
2021/01/30 02:24:54;;;;;;;16.50;9.32;;;-0.60;99.90;;;;;;5024787;28;20250;-44
2021/01/30 02:27:45;;;;;;;22.02;11.00;;;-0.70;99.90;;;;;;5001725;28;20033;-44
2021/01/30 02:30:17;;;;;;;20.92;9.85;;;-0.70;99.90;;;;;;5007976;28;20029;-45
2021/01/30 02:32:45;;;;;;;18.42;9.95;;;-0.60;99.90;;;;;;5008766;28;20387;-44
2021/01/30 02:35:47;;;;;;;19.67;10.45;;;-0.70;99.90;;;;;;5008326;28;20058;-45
2021/01/30 02:38:18;;;;;;;18.15;9.75;;;-0.80;99.90;;;;;;5009029;28;20243;-44
2021/01/30 02:40:48;;;;;;;17.85;9.18;;;-0.70;99.90;;;;;;5008911;28;20033;-44
2021/01/30 02:43:19;;;;;;;20.08;10.43;;;-0.80;99.90;;;;;;5008805;28;20490;-45
2021/01/30 02:45:50;;;;;;;15.32;8.35;;;-0.70;99.90;;;;;;5008243;28;20080;-44
2021/01/30 02:48:40;;;;;;;16.90;8.23;;;-0.80;99.90;;;;;;4990958;28;20157;-46
2021/01/30 02:51:10;;;;;;;15.40;8.00;;;-0.70;99.90;;;;;;4990942;28;20491;-45
2021/01/30 02:53:40;;;;;;;13.38;7.45;;;-0.80;99.90;;;;;;5018124;28;20021;-44
2021/01/30 02:56:07;;;;;;;18.42;8.10;;;-0.80;99.90;;;;;;5009747;28;20398;-44
2021/01/30 02:58:45;;;;;;;16.25;8.20;;;-0.80;99.90;;;;;;5028476;28;20034;-47
2021/01/30 03:01:11;;;;;;;16.20;7.85;;;-0.80;99.90;;;;;;5028623;28;20490;-45
2021/01/30 03:03:37;;;;;;;14.60;7.72;;;-0.80;99.90;;;;;;5028934;28;20029;-46
2021/01/30 03:06:30;;;;;;;16.20;9.15;;;-0.80;99.90;;;;;;5027630;28;20497;-46
2021/01/30 03:09:23;;;;;;;13.70;8.15;;;-0.80;99.90;;;;;;5027992;28;20498;-45
2021/01/30 03:12:01;;;;;;;16.63;9.10;;;-0.70;99.90;;;;;;5022666;28;20041;-44
2021/01/30 03:14:29;;;;;;;17.35;9.60;;;-0.80;99.90;;;;;;5027626;28;20072;-45
2021/01/30 03:16:59;;;;;;;16.92;9.40;;;-0.80;99.90;;;;;;5027940;28;20146;-43
2021/01/30 03:19:29;;;;;;;18.58;9.75;;;-0.80;99.90;;;;;;5027887;28;20039;-46
2021/01/30 03:22:15;;;;;;;15.20;8.60;;;-0.80;99.90;;;;;;5028111;28;20171;-45
2021/01/30 03:24:46;;;;;;;18.75;8.77;;;-0.80;99.90;;;;;;5026880;28;20128;-45
2021/01/30 03:27:27;;;;;;;16.75;8.95;;;-0.80;99.90;;;;;;5027981;28;20058;-45
2021/01/30 03:29:54;;;;;;;17.70;9.65;;;-0.80;99.90;;;;;;5027797;28;20018;-46
2021/01/30 03:32:20;;;;;;;16.48;8.73;;;-0.80;99.90;;;;;;5027777;28;20591;-45
2021/01/30 03:34:49;;;;;;;16.20;8.65;;;-0.80;99.90;;;;;;5027274;28;20057;-45
2021/01/30 03:37:15;;;;;;;20.92;8.50;;;-0.80;99.90;;;;;;5027830;28;20033;-47
2021/01/30 03:39:40;;;;;;;17.60;9.05;;;-0.70;99.90;;;;;;5027413;28;20028;-45
2021/01/30 03:42:06;;;;;;;16.83;8.55;;;-0.70;99.90;;;;;;5026688;28;20036;-44
2021/01/30 03:44:32;;;;;;;15.90;9.50;;;-0.70;99.90;;;;;;5009019;28;20033;-46
2021/01/30 03:46:58;;;;;;;15.23;8.98;;;-0.70;99.90;;;;;;5027650;28;20122;-44
2021/01/30 03:49:23;;;;;;;17.95;10.23;;;-0.70;99.90;;;;;;5028002;28;20096;-45
2021/01/30 03:51:49;;;;;;;16.75;9.32;;;-0.70;99.90;;;;;;5027112;28;20277;-45
2021/01/30 03:54:14;;;;;;;16.05;9.55;;;-0.70;99.90;;;;;;5026864;28;20531;-45
2021/01/30 03:56:44;;;;;;;24.80;11.35;;;-0.70;99.90;;;;;;5027237;28;20151;-45
2021/01/30 03:59:10;;;;;;;14.75;7.13;;;-0.70;99.90;;;;;;5026903;28;20371;-45
2021/01/30 04:01:36;;;;;;;22.02;12.05;;;-0.70;99.90;;;;;;5027423;28;20049;-44
2021/01/30 04:04:03;;;;;;;16.88;9.52;;;-0.70;99.90;;;;;;5027334;28;20033;-44
2021/01/30 04:06:28;;;;;;;20.45;10.20;;;-0.70;99.90;;;;;;5027040;28;20616;-45
2021/01/30 04:08:54;;;;;;;18.42;10.02;;;-0.70;99.90;;;;;;5025980;28;20147;-43
2021/01/30 04:11:27;;;;;;;22.88;11.27;;;-0.80;99.90;;;;;;5027088;28;20025;-45
2021/01/30 04:13:53;;;;;;;18.92;10.43;;;-0.80;99.90;;;;;;5027034;28;20036;-44
2021/01/30 04:16:18;;;;;;;20.23;11.38;;;-0.80;99.90;;;;;;5026624;28;20025;-44
2021/01/30 04:18:44;;;;;;;21.80;11.50;;;-0.80;99.90;;;;;;5027354;28;20186;-45
2021/01/30 04:21:11;;;;;;;24.60;12.90;;;-0.80;99.90;;;;;;5027412;28;20021;-43
2021/01/30 04:23:37;;;;;;;24.38;12.23;;;-0.80;99.90;;;;;;5026862;28;20518;-44
2021/01/30 04:26:03;;;;;;;24.73;12.45;;;-0.70;99.90;;;;;;5026336;28;20029;-44
2021/01/30 04:28:28;;;;;;;22.75;13.73;;;-0.80;99.90;;;;;;5027442;28;20032;-44
2021/01/30 04:30:54;;;;;;;24.25;13.68;;;-0.80;99.90;;;;;;5027237;28;20021;-46
2021/01/30 04:33:20;;;;;;;21.02;11.68;;;-0.80;99.90;;;;;;5027069;28;20025;-44
2021/01/30 04:35:45;;;;;;;21.23;12.60;;;-0.70;99.90;;;;;;5026157;28;20029;-45
2021/01/30 04:38:11;;;;;;;25.27;13.05;;;-0.80;99.90;;;;;;5027170;28;20398;-43
2021/01/30 04:40:40;;;;;;;25.58;12.40;;;-0.80;99.90;;;;;;5025130;28;20025;-44
2021/01/30 04:43:11;;;;;;;26.83;12.68;;;-0.80;99.90;;;;;;5026956;28;20071;-46
2021/01/30 04:46:00;;;;;;;27.70;13.25;;;-0.80;99.90;;;;;;5026631;28;20029;-45
2021/01/30 04:48:42;;;;;;;27.23;13.55;;;-0.80;99.90;;;;;;5026691;28;20338;-44
2021/01/30 04:51:33;;;;;;;22.77;12.35;;;-0.80;99.90;;;;;;5027354;28;20116;-44
2021/01/30 04:54:02;;;;;;;29.30;13.82;;;-0.90;99.90;;;;;;5026520;28;20046;-45
2021/01/30 04:56:40;;;;;;;24.95;13.15;;;-0.80;99.90;;;;;;5026494;28;20103;-44
2021/01/30 04:59:17;;;;;;;27.30;14.68;;;-0.90;99.90;;;;;;5026672;28;20028;-45
2021/01/30 05:02:01;;;;;;;26.23;13.93;;;-0.80;99.90;;;;;;5026844;28;20422;-46
2021/01/30 05:04:32;;;;;;;27.50;13.23;;;-0.80;99.90;;;;;;5026172;28;20038;-44
2021/01/30 05:07:15;;;;;;;26.25;13.52;;;-0.80;99.90;;;;;;5026810;28;20113;-44
2021/01/30 05:10:01;;;;;;;28.63;13.57;;;-0.70;99.90;;;;;;5026709;28;20147;-44
2021/01/30 05:12:35;;;;;;;27.73;14.55;;;-0.80;99.90;;;;;;5029105;28;20395;-45
2021/01/30 05:15:24;;;;;;;27.85;13.73;;;-0.70;99.90;;;;;;5030069;28;20419;-44
2021/01/30 05:18:14;;;;;;;26.23;13.52;;;-0.80;99.90;;;;;;5030809;28;20068;-43
2021/01/30 05:20:47;;;;;;;29.08;12.98;;;-0.70;99.90;;;;;;5012456;28;20478;-44
2021/01/30 05:23:14;;;;;;;33.80;14.07;;;-0.70;99.90;;;;;;5028887;28;20124;-44
2021/01/30 05:25:40;;;;;;;27.92;14.43;;;-0.70;99.90;;;;;;5029364;28;20406;-43
2021/01/30 05:28:30;;;;;;;28.00;13.85;;;-0.70;99.90;;;;;;5028670;28;20555;-45
2021/01/30 05:31:04;;;;;;;29.20;14.63;;;-0.70;99.90;;;;;;5030277;28;20025;-44
2021/01/30 05:33:51;;;;;;;26.67;13.90;;;-0.70;99.90;;;;;;5030057;28;20049;-44
2021/01/30 05:36:22;;;;;;;28.30;13.68;;;-0.80;99.90;;;;;;5029485;28;20073;-45
2021/01/30 05:39:05;;;;;;;23.60;12.57;;;-0.80;99.90;;;;;;5030069;28;20495;-47
2021/01/30 05:41:31;;;;;;;26.60;13.32;;;-0.80;99.90;;;;;;5030036;28;20048;-44
2021/01/30 05:44:04;;;;;;;29.58;13.88;;;-0.80;99.90;;;;;;5029778;28;20026;-45
2021/01/30 05:46:31;;;;;;;27.23;13.98;;;-0.80;99.90;;;;;;5028881;28;20112;-44
2021/01/30 05:48:59;;;;;;;24.02;12.35;;;-0.90;99.90;;;;;;5029369;28;20021;-45
2021/01/30 05:51:39;;;;;;;25.38;13.60;;;-0.90;99.90;;;;;;5029856;28;20021;-45
2021/01/30 05:54:05;;;;;;;29.48;14.80;;;-0.90;99.90;;;;;;5029155;28;20025;-43
2021/01/30 05:56:44;;;;;;;26.88;13.48;;;-0.90;99.90;;;;;;5028514;28;20048;-45
2021/01/30 05:59:16;;;;;;;29.23;14.40;;;-0.90;99.90;;;;;;5029781;28;20239;-46
2021/01/30 06:01:42;;;;;;;26.48;14.23;;;-0.90;99.90;;;;;;5029630;28;20311;-47
2021/01/30 06:04:11;;;;;;;29.27;14.40;;;-0.80;99.90;;;;;;5029076;28;20064;-43
2021/01/30 06:06:51;;;;;;;27.17;15.05;;;-0.80;99.90;;;;;;5028775;28;20036;-44
2021/01/30 06:09:38;;;;;;;28.48;13.30;;;-0.80;99.90;;;;;;5029461;28;20088;-45
2021/01/30 06:12:36;;;;;;;26.38;13.93;;;-0.80;99.90;;;;;;5028602;28;20060;-45
2021/01/30 06:15:19;;;;;;;27.77;14.40;;;-0.80;99.90;;;;;;5028685;28;20119;-43
2021/01/30 06:17:45;;;;;;;25.15;12.73;;;-0.80;99.90;;;;;;5028065;28;20029;-44
2021/01/30 06:20:18;;;;;;;27.40;14.70;;;-0.80;99.90;;;;;;5029376;28;20406;-44
2021/01/30 06:22:46;;;;;;;26.60;13.50;;;-0.70;99.90;;;;;;5028888;28;20086;-43
2021/01/30 06:25:29;;;;;;;26.63;13.55;;;-0.70;99.90;;;;;;5028138;28;20061;-44
2021/01/30 06:28:01;;;;;;;26.67;13.13;;;-0.70;99.90;;;;;;5029525;28;20017;-43
2021/01/30 06:30:36;;;;;;;24.23;13.30;;;-0.70;99.90;;;;;;5029478;28;20486;-44
2021/01/30 06:33:17;;;;;;;25.48;13.80;;;-0.70;99.90;;;;;;5027588;28;20460;-43
2021/01/30 06:35:42;;;;;;;23.92;12.65;;;-0.70;99.90;;;;;;5027064;28;20406;-43
2021/01/30 06:38:30;;;;;;;26.55;13.35;;;-0.70;99.90;;;;;;5028913;28;20029;-44
2021/01/30 06:41:00;;;;;;;23.88;12.07;;;-0.70;99.90;;;;;;5028966;28;20053;-44
2021/01/30 06:43:28;;;;;;;26.33;13.90;;;-0.70;99.90;;;;;;5028908;28;20029;-46
2021/01/30 06:46:05;;;;;;;27.13;13.05;;;-0.70;99.90;;;;;;5027687;28;20272;-44
2021/01/30 06:48:53;;;;;;;24.98;12.90;;;-0.70;99.90;;;;;;5028890;28;20034;-45
2021/01/30 06:51:29;;;;;;;23.38;12.05;;;-0.70;99.90;;;;;;5028395;28;20018;-44
2021/01/30 06:54:14;;;;;;;23.67;12.43;;;-0.70;99.90;;;;;;5027110;28;20083;-45
2021/01/30 06:56:39;;;;;;;27.58;14.07;;;-0.70;99.90;;;;;;5027249;28;20026;-44
2021/01/30 06:59:11;;;;;;;24.25;12.32;;;-0.70;99.90;;;;;;5018311;28;20072;-43
2021/01/30 07:01:44;;;;;;;24.75;12.60;;;-0.70;99.90;;;;;;5009139;28;20048;-45
2021/01/30 07:04:35;;;;;;;28.73;13.57;;;-0.60;99.90;;;;;;5008620;28;20034;-44
2021/01/30 07:07:21;;;;;;;21.75;11.75;;;-0.70;99.90;;;;;;5019491;28;20072;-45
2021/01/30 07:10:08;;;;;;;25.90;13.32;;;-0.60;99.90;;;;;;5023971;28;20112;-44
2021/01/30 07:13:00;;;;;;;26.90;13.10;;;-0.60;99.90;;;;;;5024373;28;20249;-44
2021/01/30 07:15:25;;;;;;;26.73;13.55;;;-0.60;99.90;;;;;;5018538;28;20026;-44
2021/01/30 07:18:00;;;;;;;25.13;13.27;;;-0.60;99.90;;;;;;5016792;28;20053;-45
2021/01/30 07:20:49;;;;;;;25.90;13.02;;;-0.60;99.90;;;;;;5019201;28;20284;-45
2021/01/30 07:23:33;;;;;;;25.20;12.90;;;-0.50;99.90;;;;;;5042707;28;20500;-44
2021/01/30 07:26:07;;;;;;;25.10;12.48;;;-0.50;99.90;;;;;;5024922;28;20073;-47
2021/01/30 07:28:41;;;;;;;24.10;12.85;;;-0.50;99.90;;;;;;5020401;28;20049;-45
2021/01/30 07:31:31;;;;;;;22.75;12.10;;;-0.50;99.90;;;;;;5027260;28;20561;-45
2021/01/30 07:34:23;;;;;;;24.60;13.07;;;-0.40;99.90;;;;;;5027268;28;20026;-44
2021/01/30 07:37:14;;;;;;;29.58;13.80;;;-0.40;99.90;;;;;;5026145;28;20522;-44
2021/01/30 07:39:42;;;;;;;25.30;13.38;;;-0.30;99.90;;;;;;5002156;28;20046;-44
2021/01/30 07:42:47;;;;;;;21.63;12.80;;;-0.30;99.90;;;;;;5003209;28;20041;-44
2021/01/30 07:45:29;;;;;;;24.98;12.98;;;-0.20;99.90;;;;;;5016629;28;20048;-45
2021/01/30 07:48:31;;;;;;;22.08;12.65;;;-0.30;99.90;;;;;;5017231;28;20053;-44
2021/01/30 07:51:11;;;;;;;24.55;12.80;;;-0.20;99.90;;;;;;5024877;28;20068;-44
2021/01/30 07:53:58;;;;;;;22.87;12.87;;;-0.10;99.90;;;;;;5027045;28;20483;-46
2021/01/30 07:56:38;;;;;;;23.25;13.13;;;-0.10;99.90;;;;;;5003138;28;20378;-46
2021/01/30 07:59:18;;;;;;;21.27;11.67;;;-0.10;99.90;;;;;;5003728;28;20037;-45
2021/01/30 08:01:58;;;;;;;22.27;12.55;;;-0.10;99.90;;;;;;5014422;28;20048;-45
2021/01/30 08:04:49;;;;;;;25.70;12.60;;;0.00;99.90;;;;;;5025411;28;20029;-46
2021/01/30 08:07:33;;;;;;;22.08;11.73;;;0.00;99.90;;;;;;5016127;28;20030;-44
2021/01/30 08:10:03;;;;;;;17.67;11.13;;;0.00;99.90;;;;;;5019380;28;20116;-45
2021/01/30 08:12:55;;;;;;;21.53;12.23;;;0.10;99.90;;;;;;5012781;28;20022;-49
2021/01/30 08:15:33;;;;;;;21.58;11.68;;;0.10;99.90;;;;;;4989335;28;20277;-46
2021/01/30 08:18:12;;;;;;;21.92;12.10;;;0.20;99.90;;;;;;4998263;28;20022;-45
2021/01/30 08:20:47;;;;;;;24.55;13.02;;;0.20;99.90;;;;;;4998240;28;20291;-44
2021/01/30 08:23:34;;;;;;;22.80;12.43;;;0.20;99.90;;;;;;4995408;28;20490;-44
2021/01/30 08:26:06;;;;;;;24.45;13.45;;;0.30;99.90;;;;;;5006232;28;20320;-45
2021/01/30 08:28:35;;;;;;;21.27;11.27;;;0.30;99.90;;;;;;5007484;28;20467;-45
2021/01/30 08:31:00;;;;;;;21.35;11.32;;;0.30;99.90;;;;;;4993935;28;20030;-45
2021/01/30 08:33:46;;;;;;;20.67;11.20;;;0.40;99.90;;;;;;4999708;28;20033;-44
2021/01/30 08:36:32;;;;;;;19.95;10.40;;;0.40;99.90;;;;;;5006991;28;20169;-44
2021/01/30 08:39:16;;;;;;;20.10;10.85;;;0.50;99.90;;;;;;4986193;28;20278;-46
2021/01/30 08:41:45;;;;;;;21.13;12.32;;;0.60;99.90;;;;;;4987591;28;20542;-45
2021/01/30 08:44:36;;;;;;;17.38;10.30;;;0.60;99.90;;;;;;4988086;28;20034;-44
2021/01/30 08:47:20;;;;;;;18.00;10.77;;;0.70;99.90;;;;;;5008341;28;20030;-45
2021/01/30 08:50:13;;;;;;;17.95;9.52;;;0.70;99.90;;;;;;5011407;28;20022;-44
2021/01/30 08:52:52;;;;;;;17.88;10.00;;;0.70;99.90;;;;;;5009582;28;20044;-46
2021/01/30 08:55:43;;;;;;;17.85;10.50;;;0.70;99.90;;;;;;5010270;28;20032;-45
2021/01/30 08:58:28;;;;;;;19.23;11.57;;;0.80;99.90;;;;;;5011053;28;20030;-44
2021/01/30 09:00:57;;;;;;;16.65;8.57;;;0.80;99.90;;;;;;5010886;28;20088;-44
2021/01/30 09:03:48;;;;;;;16.15;8.65;;;0.90;99.90;;;;;;5010568;28;20383;-44
2021/01/30 09:06:38;;;;;;;11.27;6.90;;;1.00;99.90;;;;;;4992649;28;20029;-45
2021/01/30 09:09:11;;;;;;;11.95;7.10;;;1.00;99.90;;;;;;5011339;28;20022;-44
2021/01/30 09:11:40;;;;;;;9.80;6.20;;;1.10;99.90;;;;;;5010904;28;20034;-45
2021/01/30 09:14:12;;;;;;;8.27;5.18;;;1.30;99.90;;;;;;5027898;28;20061;-44
2021/01/30 09:16:56;;;;;;;9.57;5.03;;;1.40;99.90;;;;;;5029438;28;20181;-45
2021/01/30 09:19:46;;;;;;;5.50;3.90;;;1.50;99.90;;;;;;5030366;28;20151;-45
2021/01/30 09:22:35;;;;;;;8.15;5.15;;;1.60;99.90;;;;;;5030491;28;20033;-48
2021/01/30 09:25:14;;;;;;;7.60;4.35;;;1.60;99.90;;;;;;5029664;28;20033;-46
2021/01/30 09:28:02;;;;;;;7.03;4.32;;;1.60;99.90;;;;;;5030547;28;20071;-45
2021/01/30 09:30:31;;;;;;;6.53;3.58;;;1.70;99.90;;;;;;5030104;28;20032;-46
2021/01/30 09:32:58;;;;;;;4.50;2.95;;;1.70;99.90;;;;;;5030340;28;20026;-45
2021/01/30 09:35:38;;;;;;;4.28;3.00;;;1.70;99.90;;;;;;5029289;28;20497;-46
2021/01/30 09:38:27;;;;;;;5.38;3.72;;;1.80;99.90;;;;;;5029891;28;20033;-44
2021/01/30 09:41:11;;;;;;;4.65;3.20;;;1.60;99.90;;;;;;5029986;28;20035;-45
2021/01/30 09:43:36;;;;;;;5.00;3.25;;;1.60;99.90;;;;;;5030089;28;20471;-44
2021/01/30 09:46:05;;;;;;;3.10;2.42;;;1.60;99.90;;;;;;5029603;28;20040;-47
2021/01/30 09:48:33;;;;;;;4.80;3.45;;;1.70;99.90;;;;;;5029401;28;20491;-45
2021/01/30 09:51:00;;;;;;;4.78;2.88;;;1.80;99.90;;;;;;5030094;28;20037;-45
2021/01/30 09:53:31;;;;;;;4.00;3.00;;;1.80;99.90;;;;;;5029819;28;20014;-46
2021/01/30 09:56:13;;;;;;;4.13;2.75;;;1.90;99.90;;;;;;5027989;28;20104;-45
2021/01/30 09:58:42;;;;;;;4.88;2.78;;;2.00;99.90;;;;;;5029569;28;20275;-45
2021/01/30 10:01:16;;;;;;;4.07;2.85;;;2.10;99.90;;;;;;5029748;28;20475;-44
2021/01/30 10:03:42;;;;;;;4.25;2.40;;;2.10;99.90;;;;;;5029266;28;20181;-44
2021/01/30 10:06:12;;;;;;;2.95;2.40;;;2.20;99.90;;;;;;5029391;28;20044;-44
2021/01/30 10:08:38;;;;;;;2.83;2.25;;;2.20;99.90;;;;;;5030099;28;20483;-44
2021/01/30 10:11:22;;;;;;;2.72;2.17;;;2.30;99.90;;;;;;5029164;28;20057;-46
2021/01/30 10:13:56;;;;;;;3.47;2.60;;;2.20;99.90;;;;;;5029213;28;20074;-45
2021/01/30 10:16:25;;;;;;;4.72;3.08;;;2.30;99.90;;;;;;5028492;28;20033;-44
2021/01/30 10:18:58;;;;;;;4.53;2.70;;;2.30;99.90;;;;;;5029644;28;20026;-45
2021/01/30 10:21:34;;;;;;;3.72;2.45;;;2.30;99.90;;;;;;5029081;28;20018;-46
2021/01/30 10:24:14;;;;;;;3.53;2.30;;;2.30;99.90;;;;;;5028801;28;20303;-46
2021/01/30 10:26:40;;;;;;;4.32;3.22;;;2.30;99.90;;;;;;5028643;28;20053;-45
2021/01/30 10:29:12;;;;;;;4.20;2.20;;;2.40;99.90;;;;;;5028891;28;20480;-44
2021/01/30 10:31:46;;;;;;;2.47;1.98;;;2.30;99.90;;;;;;5029206;28;20306;-43
2021/01/30 10:34:29;;;;;;;2.92;2.22;;;2.40;99.90;;;;;;5029073;28;20029;-44
2021/01/30 10:37:01;;;;;;;2.58;2.05;;;2.40;99.90;;;;;;5029229;28;20108;-44
2021/01/30 10:39:30;;;;;;;3.20;2.28;;;2.30;99.90;;;;;;5027502;28;20486;-43
2021/01/30 10:42:01;;;;;;;2.83;2.07;;;2.30;99.90;;;;;;5028675;28;20387;-46
2021/01/30 10:44:30;;;;;;;2.70;2.05;;;2.30;99.90;;;;;;5027902;28;20033;-45
2021/01/30 10:47:02;;;;;;;2.10;1.90;;;2.40;99.90;;;;;;5010722;28;20033;-45
2021/01/30 10:49:31;;;;;;;2.70;1.80;;;2.40;99.90;;;;;;5029281;28;20112;-46
2021/01/30 10:52:13;;;;;;;3.17;2.17;;;2.40;99.90;;;;;;5028750;28;20064;-45
2021/01/30 10:54:41;;;;;;;2.40;1.75;;;2.40;99.90;;;;;;5010187;28;20390;-46
2021/01/30 10:57:11;;;;;;;3.55;2.08;;;2.40;99.90;;;;;;5028452;28;20026;-47
2021/01/30 10:59:55;;;;;;;5.57;1.80;;;2.40;99.90;;;;;;5028783;28;20017;-46
2021/01/30 11:02:38;;;;;;;3.38;2.30;;;2.50;99.90;;;;;;5028242;28;20022;-45
2021/01/30 11:05:06;;;;;;;3.08;2.08;;;2.50;99.90;;;;;;5028052;28;20059;-46
2021/01/30 11:07:40;;;;;;;4.20;2.28;;;2.40;99.90;;;;;;5028317;28;20048;-46
2021/01/30 11:10:17;;;;;;;3.55;2.47;;;2.50;99.90;;;;;;5029341;28;20031;-46
2021/01/30 11:12:42;;;;;;;2.97;2.33;;;2.50;99.90;;;;;;5028997;28;20545;-46
2021/01/30 11:15:13;;;;;;;5.38;2.47;;;2.50;99.90;;;;;;5027426;28;20108;-49
2021/01/30 11:17:39;;;;;;;4.97;2.40;;;2.50;99.90;;;;;;5029328;28;20021;-49
2021/01/30 11:20:05;;;;;;;3.97;2.28;;;2.50;99.90;;;;;;5028631;28;20033;-46
2021/01/30 11:22:30;;;;;;;3.60;2.28;;;2.60;99.90;;;;;;5028050;28;20049;-49
2021/01/30 11:25:05;;;;;;;2.75;2.35;;;2.50;99.90;;;;;;5009886;28;20467;-46
2021/01/30 11:27:33;;;;;;;4.20;2.83;;;2.60;99.90;;;;;;5010807;28;20013;-44
2021/01/30 11:30:16;;;;;;;3.83;3.13;;;2.60;99.90;;;;;;5028264;28;20534;-45
2021/01/30 11:32:46;;;;;;;3.65;2.58;;;2.50;99.90;;;;;;5025490;28;20033;-48
2021/01/30 11:35:17;;;;;;;3.42;2.58;;;2.50;99.90;;;;;;4993246;28;20022;-47
2021/01/30 11:37:42;;;;;;;3.35;2.85;;;2.50;99.90;;;;;;5009215;28;20033;-45
2021/01/30 11:40:10;;;;;;;4.32;3.22;;;2.50;99.90;;;;;;5009950;28;20045;-46
2021/01/30 11:42:36;;;;;;;2.65;2.33;;;2.50;99.90;;;;;;5009232;28;20026;-45
2021/01/30 11:45:03;;;;;;;3.20;2.67;;;2.50;99.90;;;;;;5006840;28;20492;-45
2021/01/30 11:47:28;;;;;;;4.95;3.38;;;2.50;99.90;;;;;;5007794;28;20030;-47
2021/01/30 11:49:55;;;;;;;4.68;2.50;;;2.50;99.90;;;;;;5007687;28;20497;-47
2021/01/30 11:52:25;;;;;;;4.65;3.10;;;2.60;99.90;;;;;;5009250;28;20030;-44
2021/01/30 11:54:50;;;;;;;4.00;3.00;;;2.60;99.90;;;;;;5027951;28;20084;-48
2021/01/30 11:57:16;;;;;;;4.40;3.33;;;2.60;99.90;;;;;;5027847;28;20461;-47
2021/01/30 11:59:42;;;;;;;4.63;3.40;;;2.60;99.90;;;;;;5028517;28;20021;-44
2021/01/30 12:02:22;;;;;;;4.03;2.65;;;2.60;99.90;;;;;;5010315;28;20209;-45
2021/01/30 12:04:47;;;;;;;4.35;3.03;;;2.60;99.90;;;;;;5028369;28;20104;-45
2021/01/30 12:07:13;;;;;;;3.95;3.00;;;2.70;99.90;;;;;;5028728;28;20132;-47
2021/01/30 12:09:40;;;;;;;3.30;2.78;;;2.70;99.90;;;;;;5028159;28;20056;-44
2021/01/30 12:12:06;;;;;;;3.42;2.72;;;2.70;99.90;;;;;;5026848;28;20464;-45
2021/01/30 12:14:32;;;;;;;2.65;2.30;;;2.70;99.90;;;;;;5026071;28;20029;-46
2021/01/30 12:16:57;;;;;;;2.88;2.47;;;2.80;99.90;;;;;;5028479;28;20043;-47
2021/01/30 12:19:23;;;;;;;3.03;2.30;;;2.80;99.90;;;;;;5027803;28;20026;-44
2021/01/30 12:21:48;;;;;;;2.90;2.17;;;2.80;99.90;;;;;;5010607;28;20025;-46
2021/01/30 12:24:14;;;;;;;2.17;1.98;;;2.80;99.90;;;;;;5026681;28;20039;-45
2021/01/30 12:26:40;;;;;;;1.80;1.63;;;2.80;99.90;;;;;;5027479;28;20083;-46
2021/01/30 12:29:06;;;;;;;2.50;2.22;;;2.70;99.90;;;;;;5027710;28;20120;-44
2021/01/30 12:31:32;;;;;;;2.20;2.00;;;2.70;99.90;;;;;;5010651;28;20109;-46
2021/01/30 12:33:58;;;;;;;3.35;2.47;;;2.70;99.90;;;;;;5018084;28;20124;-44
2021/01/30 12:36:24;;;;;;;4.93;3.35;;;2.60;99.90;;;;;;5018164;28;20510;-45
2021/01/30 12:38:49;;;;;;;3.85;2.45;;;2.40;99.90;;;;;;5017277;28;20033;-46
2021/01/30 12:41:15;;;;;;;3.10;2.60;;;2.20;99.90;;;;;;5010938;28;20037;-45
2021/01/30 12:43:40;;;;;;;2.47;2.10;;;2.20;99.90;;;;;;5008788;28;20053;-46
2021/01/30 12:46:06;;;;;;;3.58;2.00;;;2.10;99.90;;;;;;5024695;28;20036;-45
2021/01/30 12:48:31;;;;;;;2.95;2.10;;;2.00;99.90;;;;;;5026654;28;20080;-45
2021/01/30 12:50:57;;;;;;;3.38;2.08;;;1.90;99.90;;;;;;5026880;28;20021;-45
2021/01/30 12:53:24;;;;;;;2.05;1.90;;;1.80;99.90;;;;;;5014687;28;20018;-46
2021/01/30 12:55:51;;;;;;;3.10;2.72;;;1.80;99.90;;;;;;5023907;28;20376;-45
2021/01/30 12:58:18;;;;;;;5.00;3.47;;;1.70;99.90;;;;;;5022176;28;20367;-44
2021/01/30 13:00:44;;;;;;;2.83;1.98;;;1.70;99.90;;;;;;5012487;28;20057;-46
2021/01/30 13:03:09;;;;;;;3.63;2.08;;;1.80;99.90;;;;;;5013869;28;20025;-46
2021/01/30 13:05:35;;;;;;;3.88;2.47;;;1.80;99.90;;;;;;5015219;28;20049;-46
2021/01/30 13:08:01;;;;;;;1.92;1.77;;;1.80;99.90;;;;;;5014393;28;20026;-45
2021/01/30 13:10:27;;;;;;;1.83;1.63;;;1.80;99.90;;;;;;5013634;28;20053;-45